N5CSU Weather Reports


Display with metric or nautical units.
time (UTC)temp
F
wind
direction
speed
MPH
gust
MPH
rain 1hr
in
rain 24hr
in
rain mn
in
humidity
%
barometer
mb
20240421053011 48 181 0.0 0.0 0.00 0.00 0.00 97 1025.2
20240421052510 48 181 0.0 0.0 0.00 0.00 0.00 97 1025.2
20240421052008 48 181 0.0 0.0 0.00 0.00 0.00 97 1024.9
20240421051506 48 181 0.0 0.0 0.00 0.00 0.00 97 1025.2
20240421051003 48 181 0.0 0.0 0.00 0.00 0.00 97 1024.9
20240421050503 48 181 0.0 0.0 0.00 0.00 0.00 97 1024.9
20240421050000 48 181 0.0 0.0 0.00 3.47 3.47 97 1024.9
20240421045459 48 181 0.0 0.0 0.00 3.47 3.47 97 1024.5
20240421044958 48 181 0.0 0.0 0.00 3.47 3.47 97 1024.5
20240421044457 48 181 0.0 0.0 0.00 3.47 3.47 97 1024.9
20240421043953 48 181 0.0 0.0 0.00 3.47 3.47 96 1024.9
20240421043453 48 181 0.0 0.0 0.00 3.47 3.47 96 1024.9
20240421042952 48 160 0.0 0.0 0.00 3.47 3.47 96 1024.9
20240421042451 48 160 0.0 0.0 0.00 3.47 3.47 96 1024.9
20240421041947 48 142 0.0 3.0 0.00 3.47 3.47 96 1024.9
20240421041446 48 159 0.0 0.0 0.00 3.47 3.47 96 1024.9
20240421040946 48 158 0.0 0.0 0.00 3.47 3.47 96 1024.9
20240421040446 48 160 0.0 0.0 0.00 3.47 3.47 95 1024.9
20240421035945 48 172 0.0 0.0 0.00 3.47 3.47 95 1024.9
20240421035444 48 152 0.0 0.0 0.00 3.47 3.47 95 1025.2
20240421034944 48 349 1.0 3.0 0.00 3.47 3.47 95 1024.9
20240421034444 48 159 0.0 0.0 0.00 3.47 3.47 95 1024.9
20240421033942 48 124 3.0 3.0 0.00 3.47 3.47 95 1024.5
20240421033441 48 152 0.0 3.0 0.00 3.47 3.47 95 1024.9
20240421032938 48 149 0.0 0.0 0.00 3.47 3.47 96 1024.5
20240421032437 48 187 0.0 3.0 0.00 3.47 3.47 96 1024.2
20240421031935 48 161 0.0 3.0 0.00 3.47 3.47 96 1024.2
20240421031434 48 81 0.0 3.0 0.00 3.47 3.47 96 1024.2
20240421030932 48 162 0.0 0.0 0.00 3.47 3.47 96 1023.1
20240421030430 48 159 0.0 0.0 0.00 3.47 3.47 96 1023.1
20240421025928 48 166 0.0 3.0 0.00 3.47 3.47 97 1023.1
20240421025428 48 149 1.0 3.0 0.00 3.47 3.47 97 1022.7
20240421024923 47 173 0.0 3.0 0.00 3.47 3.47 97 1022.7
20240421024423 48 170 0.0 0.0 0.00 3.47 3.47 97 1022.4
20240421023921 48 153 0.0 0.0 0.00 3.47 3.47 97 1022.7
20240421023419 48 155 0.0 0.0 0.00 3.47 3.47 97 1022.4
20240421022919 48 160 0.0 3.0 0.00 3.47 3.47 97 1023.4
20240421022418 48 155 0.0 0.0 0.00 3.47 3.47 97 1023.1
20240421021915 48 158 0.0 0.0 0.00 3.47 3.47 97 1022.7
20240421021413 48 189 0.0 0.0 0.00 3.47 3.47 97 1022.7
20240421020911 48 165 3.0 5.0 0.00 3.47 3.47 97 1022.4
20240421020410 48 171 0.0 0.0 0.00 3.47 3.47 97 1022.7
20240421015909 48 159 0.0 0.0 0.00 3.47 3.47 97 1022.4
20240421015409 48 148 0.0 0.0 0.00 3.47 3.47 97 1022.4
20240421014908 48 164 0.0 0.0 0.00 3.47 3.47 97 1022.1
20240421014408 48 146 2.0 3.0 0.00 3.47 3.47 97 1021.7
20240421013908 48 190 3.0 5.0 0.00 3.47 3.47 97 1022.1
20240421013407 48 153 0.0 0.0 0.00 3.47 3.47 97 1021.4
20240421012906 48 148 0.0 0.0 0.00 3.47 3.47 97 1022.1
20240421012406 47 164 0.0 0.0 0.00 3.47 3.47 97 1021.4
20240421011905 47 152 0.0 3.0 0.00 3.47 3.47 97 1021.4
20240421011405 47 160 0.0 0.0 0.07 3.47 3.47 97 1021.7
20240421010903 47 81 1.0 3.0 0.00 3.46 3.46 97 1021.0
20240421010403 47 131 2.0 3.0 0.00 3.46 3.46 97 1020.4
20240421005901 47 171 1.0 3.0 0.00 3.46 3.46 97 1019.4
20240421005401 48 157 0.0 3.0 0.00 3.46 3.46 97 1019.7
20240421004859 48 182 0.0 3.0 0.00 3.46 3.46 97 1018.7
20240421004358 48 157 1.0 3.0 0.00 3.46 3.46 97 1018.7
20240421003856 48 201 5.0 7.0 0.00 3.46 3.46 97 1019.4
20240421003356 48 156 2.0 5.0 0.07 3.46 3.46 97 1019.4
20240421002856 48 164 0.0 0.0 0.07 3.46 3.46 97 1019.7
20240421002354 47 153 0.0 0.0 0.07 3.45 3.45 97 1020.0
20240421001853 48 142 0.0 3.0 0.07 3.45 3.45 97 1020.0
20240421001351 48 173 0.0 0.0 0.07 3.44 3.44 97 1020.0
20240421000847 48 161 0.0 0.0 0.14 3.44 3.44 97 1019.7
20240421000346 48 184 1.0 3.0 0.14 3.43 3.43 97 1019.0
20240420235846 48 157 1.0 3.0 0.21 3.41 3.41 97 1018.3
20240420235344 48 24 4.0 7.0 0.28 3.40 3.40 97 1018.3
20240420234845 48 160 1.0 3.0 0.28 3.38 3.38 97 1018.7
20240420234344 48 162 1.0 3.0 0.21 3.34 3.34 97 1019.4
20240420233844 48 156 0.0 0.0 0.21 3.33 3.33 97 1020.0
20240420233343 48 144 4.0 7.0 0.14 3.30 3.30 97 1020.7
20240420232842 48 164 0.0 0.0 0.14 3.28 3.28 97 1020.7
20240420232339 48 164 0.0 3.0 0.14 3.27 3.27 97 1021.0
20240420231838 48 186 1.0 3.0 0.14 3.26 3.26 97 1021.0
20240420231338 48 164 1.0 3.0 0.21 3.25 3.25 97 1022.1
20240420230837 48 355 2.0 5.0 0.21 3.24 3.24 97 1022.4
20240420230337 48 163 0.0 0.0 0.21 3.21 3.21 98 1022.4
20240420225835 48 166 0.0 0.0 0.14 3.20 3.20 97 1022.7
20240420225335 48 169 0.0 0.0 0.07 3.18 3.18 98 1023.1
20240420224833 48 162 0.0 0.0 0.14 3.17 3.17 98 1023.4
20240420224331 48 152 0.0 0.0 0.14 3.15 3.15 98 1023.9
20240420223829 48 153 0.0 0.0 0.14 3.14 3.14 98 1023.9
20240420223328 48 159 0.0 3.0 0.21 3.13 3.13 98 1023.9
20240420222825 48 174 0.0 0.0 0.21 3.12 3.12 97 1023.4
20240420222323 48 184 0.0 0.0 0.14 3.09 3.09 98 1023.1
20240420221822 48 172 0.0 0.0 0.07 3.08 3.08 98 1023.9
20240420221320 48 165 0.0 0.0 0.07 3.07 3.07 97 1023.4
20240420220818 49 159 0.0 0.0 0.14 3.07 3.07 97 1023.1
20240420220317 49 167 0.0 0.0 0.07 3.06 3.06 97 1023.1
20240420215817 49 185 0.0 3.0 0.07 3.05 3.05 97 1023.1
20240420215315 49 166 0.0 0.0 0.21 3.05 3.05 97 1023.1
20240420214813 49 88 1.0 3.0 0.21 3.02 3.02 97 1022.7
20240420214313 49 176 0.0 0.0 0.50 3.01 3.01 97 1022.7
20240420213810 49 182 0.0 0.0 0.57 2.98 2.98 97 1022.7
20240420213309 49 137 0.0 0.0 0.57 2.93 2.93 97 1022.7
20240420212807 49 163 0.0 0.0 0.43 2.88 2.88 97 1022.7
20240420212305 50 154 0.0 3.0 0.21 2.83 2.83 97 1023.1
20240420211805 50 225 1.0 3.0 0.14 2.81 2.81 97 1023.1
20240420211303 50 149 0.0 0.0 0.21 2.80 2.80 97 1023.1
20240420210803 51 178 1.0 3.0 0.28 2.79 2.79 97 1022.4
20240420210302 51 165 0.0 0.0 0.00 2.74 2.74 97 1022.4
20240420205759 51 143 0.0 3.0 0.14 2.74 2.74 97 1022.7
20240420205300 51 118 0.0 3.0 0.07 2.73 2.73 97 1022.4
20240420204759 51 178 2.0 3.0 0.21 2.72 2.72 97 1022.7
20240420204259 51 139 0.0 3.0 0.43 2.70 2.70 97 1022.7
20240420203759 52 283 3.0 5.0 1.20 2.67 2.67 97 1022.1
20240420203259 52 169 0.0 0.0 1.13 2.62 2.62 97 1022.1
20240420202758 52 70 5.0 7.0 0.21 2.47 2.47 97 1022.1
20240420202257 52 162 0.0 0.0 0.21 2.43 2.43 97 1022.7
20240420201757 52 169 0.0 0.0 0.92 2.42 2.42 97 1023.1
20240420201256 52 162 0.0 0.0 0.92 2.39 2.39 97 1022.7
20240420200755 52 165 0.0 0.0 0.43 2.26 2.26 97 1023.1
20240420200254 52 176 0.0 0.0 0.35 2.23 2.23 97 1022.7
20240420195251 53 202 0.0 3.0 0.07 2.17 2.17 97 1022.7
20240420194750 53 133 3.0 3.0 0.35 2.17 2.17 97 1022.1
20240420194250 53 171 0.0 0.0 0.71 2.15 2.15 97 1021.7
20240420193749 53 52 3.0 5.0 0.50 2.10 2.10 97 1022.1
20240420193248 53 163 0.0 0.0 0.28 2.04 2.04 98 1022.7
20240420192748 53 70 1.0 3.0 0.50 2.02 2.02 97 1022.1
20240420192247 53 163 0.0 0.0 0.35 1.98 1.98 97 1022.1
20240420191746 53 163 0.0 0.0 0.21 1.94 1.94 97 1022.7
20240420191246 53 164 0.0 0.0 0.28 1.93 1.93 97 1022.4
20240420190745 53 135 1.0 3.0 0.28 1.89 1.89 98 1022.7
20240420190243 53 191 0.0 0.0 0.28 1.87 1.87 97 1023.1
20240420185742 53 155 3.0 5.0 0.14 1.83 1.83 97 1023.4
20240420185242 53 172 0.0 0.0 0.07 1.82 1.82 97 1023.1
20240420184740 53 143 1.0 3.0 0.00 1.81 1.81 97 1022.7
20240420184239 53 164 0.0 0.0 0.07 1.81 1.81 98 1022.4
20240420183738 53 147 0.0 0.0 0.07 1.81 1.81 98 1022.1
20240420183236 53 156 0.0 0.0 0.07 1.80 1.80 98 1022.1
20240420182735 53 163 0.0 0.0 0.14 1.80 1.80 98 1022.1
20240420182235 53 160 0.0 0.0 0.14 1.78 1.78 98 1022.1
20240420181732 53 172 0.0 0.0 0.07 1.77 1.77 98 1022.1
20240420181231 53 170 0.0 0.0 0.00 1.76 1.76 98 1022.4
20240420180730 53 173 0.0 0.0 0.07 1.76 1.76 98 1022.1
20240420180228 53 151 0.0 0.0 0.00 1.75 1.75 98 1022.4
20240420175727 53 152 0.0 0.0 0.00 1.75 1.75 98 1022.7
20240420175227 54 166 0.0 0.0 0.00 1.75 1.75 98 1022.7
20240420174725 53 168 0.0 0.0 0.00 1.75 1.75 98 1022.7
20240420174224 53 168 0.0 0.0 0.00 1.75 1.75 97 1022.7
20240420173723 53 160 0.0 0.0 0.07 1.75 1.75 97 1022.4
20240420173224 53 172 0.0 0.0 0.07 1.75 1.75 97 1022.1
20240420172723 53 164 0.0 0.0 0.07 1.74 1.74 97 1022.1
20240420172222 53 172 0.0 0.0 0.07 1.74 1.74 97 1022.1
20240420171721 53 151 1.0 3.0 0.14 1.72 1.72 97 1021.7
20240420171221 54 160 0.0 0.0 0.35 1.72 1.72 97 1021.4
20240420170719 54 182 0.0 0.0 0.28 1.70 1.70 97 1021.4
20240420170219 54 158 0.0 0.0 0.14 1.67 1.67 97 1021.7
20240420165718 54 171 0.0 0.0 0.21 1.65 1.65 97 1023.4
20240420165218 54 170 0.0 0.0 0.43 1.64 1.64 97 1023.9
20240420164716 54 167 0.0 0.0 0.21 1.61 1.61 97 1023.1
20240420164215 54 158 0.0 0.0 0.00 1.57 1.57 97 1023.4
20240420163713 53 149 0.0 0.0 0.00 1.57 1.57 97 1023.4
20240420163213 53 175 0.0 0.0 0.07 1.57 1.57 97 1022.4
20240420162712 53 164 0.0 0.0 0.07 1.57 1.57 97 1022.4
20240420162209 53 164 1.0 3.0 0.00 1.56 1.56 97 1022.1
20240420161707 53 60 2.0 5.0 0.00 1.56 1.56 97 1021.7
20240420161205 53 173 0.0 0.0 0.00 1.56 1.56 97 1021.7
20240420160703 53 187 2.0 5.0 0.07 1.56 1.56 97 1021.4
20240420160200 53 157 1.0 3.0 0.07 1.56 1.56 97 1021.7
20240420155658 53 168 2.0 5.0 0.43 1.55 1.55 97 1021.4
20240420155158 53 355 0.0 0.0 0.50 1.54 1.54 97 1021.0
20240420154658 53 163 0.0 0.0 0.50 1.48 1.48 97 1021.0
20240420154156 53 118 3.0 5.0 0.57 1.45 1.45 97 1021.0
20240420153655 53 163 0.0 0.0 0.21 1.38 1.38 97 1021.7
20240420153155 53 157 0.0 3.0 0.21 1.35 1.35 97 1022.4
20240420152652 53 169 0.0 3.0 0.28 1.35 1.35 97 1022.7
20240420152151 53 180 0.0 3.0 0.35 1.31 1.31 97 1022.4
20240420151650 53 141 1.0 3.0 0.28 1.29 1.29 97 1021.7
20240420151149 54 171 0.0 0.0 0.21 1.25 1.25 97 1021.4
20240420150648 54 156 0.0 0.0 0.28 1.24 1.24 97 1021.4
20240420150147 54 158 4.0 7.0 0.50 1.22 1.22 97 1021.7
20240420145646 54 160 1.0 3.0 0.57 1.19 1.19 97 1021.4
20240420145145 54 161 3.0 7.0 0.35 1.13 1.13 97 1021.4
20240420144645 54 146 0.0 0.0 0.21 1.10 1.10 97 1020.7
20240420144144 54 162 1.0 3.0 0.14 1.07 1.07 97 1021.7
20240420143643 54 168 0.0 0.0 0.21 1.06 1.06 97 1021.4
20240420143143 54 163 0.0 0.0 0.71 1.05 1.05 97 1022.4
20240420142642 54 165 0.0 3.0 0.71 1.03 1.03 97 1022.1
20240420142142 54 167 0.0 0.0 0.14 0.92 0.92 97 1021.4
20240420141642 54 167 0.0 3.0 0.00 0.90 0.90 97 1022.7
20240420141141 54 174 0.0 0.0 0.07 0.90 0.90 96 1022.4
20240420140639 54 163 0.0 0.0 0.14 0.90 0.90 96 1021.7
20240420140138 55 345 4.0 7.0 0.14 0.89 0.89 96 1021.0
20240420135637 55 174 1.0 3.0 0.07 0.87 0.87 97 1021.0
20240420135136 55 179 4.0 7.0 0.07 0.86 0.86 97 1020.7
20240420134635 55 24 6.0 15.0 0.07 0.85 0.85 97 1020.4
20240420134134 55 162 0.0 0.0 0.21 0.85 0.85 97 1021.4
20240420133633 55 173 0.0 3.0 0.35 0.84 0.84 97 1021.4
20240420133132 56 194 1.0 3.0 0.43 0.81 0.81 97 1021.0
20240420132631 56 156 3.0 5.0 0.28 0.78 0.78 97 1021.0
20240420132130 57 125 3.0 5.0 0.14 0.74 0.74 97 1020.7
20240420131628 57 161 1.0 3.0 0.14 0.73 0.73 97 1021.0
20240420131128 57 190 0.0 0.0 0.43 0.72 0.72 97 1021.0
20240420130626 57 161 3.0 5.0 0.57 0.71 0.71 97 1019.4
20240420130125 57 162 1.0 3.0 0.92 0.65 0.65 97 1019.4
20240420125624 57 166 1.0 3.0 1.20 0.59 0.59 97 1020.4
20240420125123 57 163 0.0 3.0 1.98 0.48 0.48 97 1021.0
20240420124622 57 165 0.0 0.0 1.63 0.37 0.37 97 1022.4
20240420124121 57 184 0.0 3.0 0.43 0.14 0.14 97 1023.1
20240420123618 58 187 0.0 3.0 0.35 0.08 0.08 96 1020.7
20240420123117 58 182 1.0 3.0 0.28 0.06 0.06 96 1020.0
20240420122616 58 170 0.0 0.0 0.07 0.02 0.02 96 1020.0
20240420122115 58 169 0.0 0.0 0.00 0.01 0.01 96 1020.4
20240420121615 58 158 2.0 3.0 0.00 0.01 0.01 96 1020.4
20240420121114 58 179 0.0 0.0 0.00 0.01 0.01 96 1020.0
20240420120614 58 165 0.0 3.0 0.00 0.01 0.01 96 1019.7
20240420120114 58 185 0.0 0.0 0.00 0.01 0.01 96 1019.0
20240420115613 58 158 0.0 0.0 0.00 0.01 0.01 96 1018.7
20240420115112 58 151 0.0 3.0 0.00 0.01 0.01 96 1018.7
20240420114609 58 357 4.0 5.0 0.00 0.01 0.01 96 1018.7
20240420114108 58 157 3.0 3.0 0.00 0.01 0.01 96 1018.7
20240420113607 58 152 0.0 3.0 0.00 0.01 0.01 96 1018.7
20240420113106 58 167 0.0 0.0 0.00 0.01 0.01 96 1018.7
20240420112606 58 162 0.0 0.0 0.00 0.01 0.01 96 1018.3
20240420112104 59 174 1.0 3.0 0.00 0.01 0.01 96 1018.3
20240420111603 59 155 1.0 3.0 0.00 0.01 0.01 96 1018.3
20240420111101 59 161 0.0 0.0 0.00 0.01 0.01 96 1018.3
20240420110559 59 207 2.0 3.0 0.00 0.01 0.01 96 1018.3
20240420110059 59 161 0.0 0.0 0.07 0.01 0.01 95 1018.3
20240420105557 59 139 1.0 3.0 0.07 0.01 0.01 95 1018.7
20240420105055 59 162 0.0 0.0 0.00 0.00 0.00 96 1018.7
20240420104554 59 180 0.0 0.0 0.00 0.00 0.00 96 1018.7
20240420104053 59 166 0.0 0.0 0.00 0.00 0.00 96 1018.7
20240420103550 60 171 0.0 0.0 0.00 0.00 0.00 96 1018.7
20240420103050 60 157 3.0 3.0 0.00 0.00 0.00 96 1018.7
20240420102548 60 173 0.0 0.0 0.00 0.00 0.00 96 1019.0
20240420102047 60 165 0.0 0.0 0.00 0.00 0.00 96 1019.0
20240420101546 60 162 0.0 0.0 0.00 0.00 0.00 96 1019.4
20240420101045 60 152 0.0 3.0 0.00 0.00 0.00 96 1019.4
20240420100545 60 148 0.0 3.0 0.00 0.00 0.00 96 1019.0
20240420100044 60 165 0.0 0.0 0.00 0.00 0.00 96 1018.7
20240420095542 60 167 0.0 0.0 0.00 0.00 0.00 96 1018.7
20240420095040 60 75 2.0 3.0 0.00 0.00 0.00 96 1019.0
20240420094539 60 158 0.0 0.0 0.00 0.00 0.00 96 1018.7
20240420094037 60 156 0.0 0.0 0.00 0.00 0.00 96 1019.0
20240420093535 60 167 0.0 0.0 0.00 0.00 0.00 96 1019.0
20240420093033 60 150 2.0 3.0 0.00 0.00 0.00 96 1019.0
20240420092533 61 153 0.0 0.0 0.00 0.00 0.00 95 1019.4
20240420092032 61 120 0.0 0.0 0.00 0.00 0.00 95 1019.4
20240420091530 61 164 0.0 0.0 0.00 0.00 0.00 95 1019.4
20240420091026 61 74 0.0 3.0 0.00 0.00 0.00 95 1019.0
20240420090524 61 162 1.0 3.0 0.00 0.00 0.00 95 1019.0
20240420090024 61 151 0.0 3.0 0.00 0.00 0.00 95 1019.4
20240420085521 61 167 0.0 0.0 0.00 0.00 0.00 95 1019.4
20240420085019 61 154 0.0 3.0 0.00 0.00 0.00 95 1019.0
20240420084517 61 159 0.0 0.0 0.00 0.00 0.00 95 1019.0
20240420084016 61 162 0.0 3.0 0.00 0.00 0.00 95 1019.4
20240420083517 61 158 0.0 0.0 0.00 0.00 0.00 95 1019.4
20240420083016 61 159 0.0 0.0 0.00 0.00 0.00 95 1019.4
20240420082515 61 156 0.0 0.0 0.00 0.00 0.00 95 1019.4
20240420082013 61 159 0.0 0.0 0.00 0.00 0.00 95 1019.4
20240420081512 61 158 0.0 0.0 0.00 0.00 0.00 95 1019.4
20240420081010 61 169 0.0 0.0 0.00 0.00 0.00 95 1019.7
20240420080509 61 161 0.0 0.0 0.00 0.00 0.00 95 1019.4
20240420080009 61 160 0.0 0.0 0.00 0.00 0.00 95 1019.7
20240420075507 61 155 0.0 0.0 0.00 0.00 0.00 95 1019.7
20240420075007 61 158 0.0 0.0 0.00 0.00 0.00 95 1019.7
20240420074506 61 163 0.0 0.0 0.00 0.00 0.00 94 1019.7
20240420074005 62 153 0.0 0.0 0.00 0.00 0.00 95 1019.7
20240420073505 62 154 0.0 0.0 0.00 0.00 0.00 94 1019.4
20240420073004 62 162 0.0 0.0 0.00 0.00 0.00 94 1020.0
20240420072502 62 163 0.0 0.0 0.00 0.00 0.00 94 1019.7
20240420072001 62 173 0.0 0.0 0.00 0.00 0.00 94 1019.7
20240420071459 62 174 0.0 0.0 0.00 0.00 0.00 93 1020.0
20240420070959 62 167 0.0 0.0 0.00 0.00 0.00 93 1019.7
20240420070454 62 171 0.0 0.0 0.00 0.00 0.00 93 1020.0
20240420065953 63 166 0.0 0.0 0.00 0.00 0.00 92 1020.0
20240420065452 63 155 0.0 0.0 0.00 0.00 0.00 92 1020.0
20240420064952 63 155 0.0 0.0 0.00 0.00 0.00 91 1020.0
20240420064451 63 164 0.0 0.0 0.00 0.00 0.00 90 1020.0
20240420063949 63 158 0.0 0.0 0.00 0.00 0.00 89 1019.7
20240420063448 63 180 0.0 0.0 0.00 0.00 0.00 88 1019.7
20240420062947 63 187 0.0 0.0 0.00 0.00 0.00 87 1019.7
20240420062445 64 177 0.0 0.0 0.00 0.00 0.00 85 1019.7
20240420061945 64 160 0.0 0.0 0.00 0.00 0.00 84 1019.7
20240420061443 64 150 0.0 0.0 0.00 0.00 0.00 83 1019.4
20240420060941 64 156 1.0 3.0 0.00 0.00 0.00 83 1019.4
20240420060440 64 176 0.0 0.0 0.00 0.00 0.00 83 1019.7
20240420055940 64 176 0.0 0.0 0.00 0.00 0.00 83 1020.0
20240420055438 64 176 0.0 0.0 0.00 0.00 0.00 83 1019.7
20240420054937 64 313 1.0 3.0 0.00 0.00 0.00 82 1019.7
20240420054436 64 176 0.0 0.0 0.00 0.00 0.00 82 1019.7
20240420053935 64 167 0.0 0.0 0.00 0.00 0.00 82 1019.4
20240420053434 64 165 0.0 0.0 0.00 0.00 0.00 82 1019.7